Cactus Peak, Santa Catalina Island Weather observations

Data are for 10 minute period ending at time listed.
 Day   Time   Solar   Ave.   Ave.  Ave.  Vector    Max.   Stn.    Total
  of    of     Rad.   Air    Rel.  Wind   Wind     Wind   Baro.  Precip.
Year   Day            Temp.  Hum.  Speed  Dir.     Gust   Pres.         
2015   (PST)   W/m2    F      %     mph   deg.      mph    mb.     in.  
------------------------------------------------------------------------
 148   18:50   23.0    56   91.5     5    344.7     6.0    999.0   0.00  
 148   19:00   10.0    55   93.9     4      6.5     5.4    999.0   0.00  
 148   19:10    3.0    55   95.5     4     19.0     4.8    999.0   0.00  
 148   19:20    1.0    58   91.5     4     22.1     6.0    999.0   0.00  
 148   19:30    0.0    55   93.6     4     23.4     5.4    999.0   0.00  
 148   19:40    0.0    57   93.8     4     42.9     4.8    999.0   0.00  
 148   19:50    0.0    60   84.2     4     48.7     6.0    999.0   0.00  
 148   20:00    0.0    63   70.0     5     69.9     6.0    999.0   0.00  
 148   20:10    0.0    65   64.9     4     91.1     5.4    999.0   0.00  
 148   20:20    0.0    64   67.3     2     84.9     3.6    999.0   0.00  
 148   20:30    0.0    59   80.7     3    343.6     4.8    999.0   0.00  
 148   20:40    0.0    55   92.3     2    347.3     3.6    999.0   0.00  
 148   20:50    0.0    55   92.4     2    319.7     4.2    999.0   0.00  
 148   21:00    0.0    54   95.4     2    294.3     5.4    999.0   0.00  
 148   21:10    0.0    54   95.3     2    350.3     3.6    999.0   0.00  
 148   21:20    0.0    54   96.4     3     74.9     5.4    999.0   0.00  
 148   21:30    0.0    56   94.9     3    109.5     6.0    999.0   0.00  
 148   21:40    0.0    56   94.3     2    161.6     4.2    999.0   0.00  
 148   21:50    0.0    56   94.4     1    152.6     4.2    999.0   0.00  
 148   22:00    0.0    55   95.5     1    166.2     3.0    999.0   0.00  
 148   22:10    0.0    55   96.2     3    131.1     6.6    999.0   0.00  
 148   22:20    0.0    55   96.9     7    150.5     9.6    999.0   0.00  
 148   22:30    0.0    55   97.7     4    136.8     7.8    999.0   0.00  
 148   22:40    0.0    55   98.2     6    134.7     8.4    999.0   0.00  
 148   22:50    0.0    54   98.0     2    129.4     4.8    999.0   0.00  
 148   23:00    0.0    54   98.1     1    114.5     4.2    999.0   0.00  
 148   23:10    0.0    55   98.3     2    140.4     3.6    999.0   0.00  
 148   23:20    0.0    55   98.4     2    144.4     5.4    999.0   0.00  
 148   23:30    0.0    55   98.4     1    100.7     3.6    999.0   0.00  
 148   23:40    0.0    54   98.5     1     78.5     3.6    999.0   0.00  
 148   23:50    0.0    54   98.5     1    108.8     2.4    999.0   0.00  
 149    0:00    0.0    54   98.5     2     27.3     3.6    999.0   0.00  
 149    0:10    0.0    55   98.8     2     53.5     3.6    999.0   0.00  
 149    0:20    0.0    54   98.6     4    168.1     5.4    999.0   0.00  
 149    0:30    0.0    54   98.7     2    164.9     4.2    999.0   0.00  
 149    0:40    0.0    53   98.8     1    164.9     3.6    999.0   0.00  
 149    0:50    0.0    53   98.9     1    199.9     0.6    999.0   0.00  
 149    1:00    0.0    54   99.0     1    114.2     3.0    999.0   0.00  
 149    1:10    0.0    54   99.0     1     61.3     4.2    999.0   0.00  
 149    1:20    0.0    54   98.9     2     61.5     4.2    999.0   0.00  
 149    1:30    0.0    54   98.9     3      7.9     4.2    999.0   0.00  
 149    1:40    0.0    54   99.0     4      4.8     4.8    999.0   0.00  
 149    1:50    0.0    54   99.0     3     25.4     3.6    999.0   0.00  
 149    2:00    0.0    54   99.0     2     26.3     4.8    999.0   0.00  
 149    2:10    0.0    54   99.1     3     14.5     4.8    999.0   0.00  
 149    2:20    0.0    54   99.1     1     52.2     3.0    999.0   0.00  
 149    2:30    0.0    54   99.1     2     27.0     4.8    999.0   0.00  
 149    2:40    0.0    54   99.1     3     29.4     4.8    999.0   0.00  
 149    2:50    0.0    54   99.2     2     63.0     3.6    999.0   0.00  
 149    3:00    0.0    54   99.2     3      9.1     4.8    999.0   0.00  
 149    3:10    0.0    53   99.2     3     29.4     4.8    999.0   0.00  
 149    3:20    0.0    53   99.2     4     32.2     6.0    999.0   0.00  
 149    3:30    0.0    54   99.3     3     27.7     6.0    999.0   0.00  
 149    3:40    0.0    54   99.3     3     29.6     6.0    999.0   0.00  
 149    3:50    0.0    54   99.3     2     87.1     4.8    999.0   0.00  
 149    4:00    0.0    54   99.3     3     85.9     4.8    999.0   0.00  
 149    4:10    0.0    54   99.3     1    107.2     3.6    999.0   0.00  
 149    4:20    0.0    54   99.3     1    123.3     4.2    999.0   0.00  
 149    4:30    0.0    54   99.3     1    136.7     2.4    999.0   0.00  
 149    4:40    0.0    54   99.3     2     22.1     4.2    999.0   0.00  
 149    4:50    1.0    54   99.4     1     50.2     2.4    999.0   0.00  
 149    5:00    3.0    54   99.4     2     29.3     3.6    999.0   0.00  
 149    5:10    6.0    54   99.4     1    311.8     1.8    999.0   0.00  
 149    5:20   10.0    54   99.4     1    347.6     3.0    999.0   0.00  
 149    5:30   16.0    54   99.4     1    145.7     1.8    999.0   0.00  
 149    5:40   25.0    54   99.4     2    166.9     4.2    999.0   0.00  
 149    5:50   34.0    54   99.4     2    180.8     4.2    999.0   0.00  
 149    6:00   40.0    54   99.4     3    184.3     5.4    999.0   0.00  
 149    6:10   38.0    54   99.4     2    177.3     4.8    999.0   0.00  
 149    6:20   44.0    54   99.4     2    139.6     4.8    999.0   0.00  
 149    6:30   58.0    54   99.4     2    108.3     4.2    999.0   0.00  
 149    6:40   71.0    54   99.4     2    192.8     4.8    999.0   0.00  
 149    6:50  105.0    54   99.4     2    159.6     3.6    999.0   0.00  
 149    7:00  105.0    54   99.4     2    176.8     4.2    999.0   0.00  
 149    7:10  130.0    54   99.4     2    163.5     4.2    999.0   0.00  
 149    7:20  131.0    54   99.4     3    192.2     6.6    999.0   0.00  
 149    7:30  181.0    54   99.4     3    181.9     4.8    999.0   0.00  
 149    7:40  203.0    55   99.4     3    170.6     7.2    999.0   0.00  
 149    7:50  241.0    55   99.4     4    155.3     5.4    999.0   0.00  
 149    8:00  306.0    55   99.3     3    154.3     6.0    999.0   0.00  
 149    8:10  480.0    55   99.2     3    121.7     6.6    999.0   0.00  
 149    8:20  377.0    56   99.0     2    150.2     6.6    999.0   0.00  
 149    8:30  649.0    57   98.9     2    164.4     4.8    999.0   0.00  
 149    8:40  673.0    57   98.3     3    176.4     6.6    999.0   0.00  
 149    8:50  699.0    57   98.2     5    175.5     8.4    999.0   0.00  
 149    9:00  724.0    57   97.2     6    177.1     8.4    999.0   0.00  
 149    9:10  749.0    58   94.8     7    173.0     9.0    999.0   0.00  
 149    9:20  770.0    59   92.6     7    170.4    10.8    999.0   0.00  
 149    9:30  800.0    58   92.2     8    174.5    11.3    999.0   0.00  
 149    9:40  824.0    59   92.0     8    170.5    11.9    999.0   0.00  
 149    9:50  846.0    59   91.4     9    168.3    12.5    999.0   0.00  
 149   10:00  863.0    59   91.5     9    170.6    12.5    999.0   0.00  
 149   10:10  880.0    60   90.0     9    171.1    11.9    999.0   0.00  
 149   10:20  897.0    60   89.4     8    169.9    13.1    999.0   0.00  
 149   10:30  872.0    60   88.2     6    171.4    10.2    999.0   0.00  
 149   10:40  934.0    61   86.7     6    176.0     9.6    999.0   0.00  
 149   10:50  944.0    62   85.3     7    172.9    11.9    999.0   0.00  
 149   11:00  950.0    62   83.9     6    175.2    10.8    999.0   0.00  
 149   11:10  957.0    63   82.1     6    168.1     9.6    999.0   0.00  
 149   11:20  964.0    62   83.0     8    177.2    11.9    999.0   0.00  
 149   11:30  971.0    62   84.4     7    173.0    11.3    999.0   0.00  
 149   11:40  951.0    62   83.2     8    180.4    11.9    999.0   0.00  
 149   11:50  929.0    61   84.0     8    179.5    11.9    999.0   0.00  
 149   12:00  967.0    62   84.1     8    174.2    12.5    999.0   0.00  
 149   12:10  938.0    63   81.5     7    175.7    13.1    999.0   0.00  
 149   12:20  923.0    64   80.4     5    177.2    10.2    999.0   0.00  
 149   12:30  957.0    68   70.4     5    336.8     8.4    999.0   0.00  
 149   12:40  972.0    69   68.0     4    338.5     8.4    999.0   0.00  
 149   12:50  935.0    70   66.6     3    242.4     6.6    999.0   0.00  
 149   13:00  951.0    67   71.0     4    164.3     7.2    999.0   0.00  
 149   13:10  937.0    66   74.1     6    166.3     9.0    999.0   0.00  
 149   13:20  929.0    65   75.1     6    183.3     9.0    999.0   0.00  
 149   13:30  904.0    66   73.4     7    173.2    10.2    999.0   0.00  
 149   13:40  910.0    64   77.0     6    180.5     7.8    999.0   0.00  
 149   13:50  844.0    66   73.8     4    176.2     6.0    999.0   0.00  
 149   14:00  834.0    70   65.4     4    336.1     6.6    999.0   0.00  
 149   14:10  813.0    71   62.5     3    246.5     5.4    999.0   0.00  
 149   14:20  798.0    70   65.8     4    336.2     7.2    999.0   0.00  
 149   14:30  770.0    71   62.0     4    340.8     7.8    999.0   0.00  
 149   14:40  666.0    72   59.9     4    341.5     7.2    999.0   0.00  
 149   14:50  566.0    72   60.1     3    210.1     5.4    999.0   0.00  
 149   15:00  650.0    72   61.6     3    229.3     5.4    999.0   0.00  
 149   15:10  659.0    69   66.2     3    179.9     5.4    999.0   0.00  
 149   15:20  544.0    71   63.8     2    178.7     4.2    999.0   0.00  
 149   15:30  698.0    71   63.1     4    191.2     7.2    999.0   0.00  
 149   15:40  618.0    66   72.9     4    185.2     7.8    999.0   0.00  
 149   15:50  533.0    69   67.3     3    306.2     7.2    999.0   0.00  
 149   16:00  530.0    68   68.4     4    192.0     7.2    999.0   0.00  
 149   16:10  433.0    64   76.3     4    175.6     6.6    999.0   0.00  
 149   16:20  328.0    66   72.5     3    335.0     4.8    999.0   0.00  
 149   16:30  238.0    67   70.8     3    322.3     4.8    999.0   0.00  
 149   16:40  405.0    66   73.7     4    337.3     6.0    999.0   0.00  
 149   16:50  428.0    67   71.9     3    317.6     6.6    999.0   0.00  
 149   17:00  362.0    66   73.2     6    351.1     7.2    999.0   0.00  
 149   17:10  306.0    65   75.1     6    344.3     7.8    999.0   0.00  
 149   17:20  274.0    65   75.7     4    344.5     6.0    999.0   0.00  
 149   17:30  264.0    65   74.5     4    345.2     5.4    999.0   0.00  
 149   17:40  252.0    66   73.0     4      0.0     5.4    999.0   0.00  
 149   17:50  198.0    65   74.4     5    348.3     6.6    999.0   0.00  
 149   18:00  131.0    64   77.1     4    342.8     6.0    999.0   0.00  
 149   18:10   93.0    62   81.5     5    350.0     6.6    999.0   0.00  
 149   18:20   76.0    61   84.3     4    358.3     5.4    999.0   0.00  
 149   18:30   57.0    61   84.3     2     15.7     4.2    999.0   0.00  
 149   18:40   40.0    61   83.3     4      7.1     5.4    999.0   0.00  

Return to Cactus Peak graphs page.


Western Regional Climate Center,wrcc@dri.edu